createdAt,value
2018-09-05T00:00:57.024Z,44.77
2018-09-05T00:03:25.929Z,48.73
2018-09-05T00:05:54.806Z,44.17
2018-09-05T00:08:23.728Z,49.83
2018-09-05T00:10:52.674Z,50.83
2018-09-05T00:13:21.566Z,45.40
2018-09-05T00:15:50.407Z,45.57
2018-09-05T00:18:19.288Z,45.20
2018-09-05T00:20:48.127Z,44.13
2018-09-05T00:23:17.086Z,46.87
2018-09-05T00:25:45.901Z,47.57
2018-09-05T00:28:14.842Z,45.07
2018-09-05T00:30:43.785Z,45.93
2018-09-05T00:33:12.682Z,44.67
2018-09-05T00:35:41.624Z,43.13
2018-09-05T00:38:10.484Z,46.43
2018-09-05T00:40:39.365Z,48.87
2018-09-05T00:43:08.318Z,47.57
2018-09-05T00:45:37.236Z,43.33
2018-09-05T00:48:06.136Z,45.77
2018-09-05T00:50:35.016Z,46.87
2018-09-05T00:53:04.027Z,47.23
2018-09-05T00:55:32.932Z,46.87
2018-09-05T00:58:01.823Z,42.97
2018-09-05T01:00:30.742Z,43.53
2018-09-05T01:02:59.826Z,49.33
2018-09-05T01:05:28.620Z,42.80
2018-09-05T01:07:57.516Z,44.37
2018-09-05T01:10:26.317Z,45.07
2018-09-05T01:12:55.160Z,41.13
2018-09-05T01:15:24.054Z,40.67
2018-09-05T01:17:52.860Z,38.93
2018-09-05T01:20:21.681Z,34.87
2018-09-05T01:22:50.500Z,40.30
2018-09-05T01:25:19.308Z,41.57
2018-09-05T01:27:48.167Z,46.57
2018-09-05T01:30:17.027Z,46.80
2018-09-05T01:32:46.316Z,43.07
2018-09-05T01:35:15.131Z,42.23
2018-09-05T01:37:44.021Z,41.77
2018-09-05T01:40:12.856Z,42.53
2018-09-05T01:42:41.733Z,46.30
2018-09-05T01:45:10.576Z,48.40
2018-09-05T01:47:39.419Z,43.60
2018-09-05T01:50:08.260Z,45.70
2018-09-05T01:52:37.088Z,45.13
2018-09-05T01:55:05.983Z,43.33
2018-09-05T01:57:34.851Z,48.57
2018-09-05T02:00:03.796Z,51.73
2018-09-05T02:02:32.669Z,52.80
2018-09-05T02:05:01.573Z,52.17
2018-09-05T02:07:30.436Z,48.43
2018-09-05T02:09:59.241Z,49.23
2018-09-05T02:12:28.040Z,54.73
2018-09-05T02:14:56.972Z,50.57
2018-09-05T02:17:25.836Z,48.17
2018-09-05T02:19:54.764Z,41.50
2018-09-05T02:22:23.566Z,44.53
2018-09-05T02:24:52.430Z,37.53
2018-09-05T02:27:21.265Z,38.90
2018-09-05T02:29:50.173Z,35.67
2018-09-05T02:32:19.000Z,37.10
2018-09-05T02:34:47.866Z,35.57
2018-09-05T02:37:16.676Z,39.17
2018-09-05T02:39:45.589Z,41.67
2018-09-05T02:42:14.409Z,40.60
2018-09-05T02:44:43.252Z,36.53
2018-09-05T02:47:12.065Z,44.07
2018-09-05T02:49:40.926Z,39.87
2018-09-05T02:52:09.727Z,41.50
2018-09-05T02:54:38.634Z,41.47
2018-09-05T02:57:07.393Z,42.40
2018-09-05T02:59:36.345Z,39.63
2018-09-05T03:02:05.124Z,44.57
2018-09-05T03:04:33.995Z,43.83
2018-09-05T03:07:02.839Z,42.87
2018-09-05T03:09:31.796Z,42.17
2018-09-05T03:12:00.591Z,40.87
2018-09-05T03:14:29.460Z,39.37
2018-09-05T03:16:58.250Z,40.07
2018-09-05T03:19:27.121Z,39.23
2018-09-05T03:21:56.025Z,41.07
2018-09-05T03:24:24.975Z,40.03
2018-09-05T03:26:53.801Z,41.93
2018-09-05T03:29:22.681Z,40.20
2018-09-05T03:31:51.760Z,41.07
2018-09-05T03:34:20.600Z,39.33
2018-09-05T03:36:49.461Z,38.80
2018-09-05T03:39:18.347Z,38.40
2018-09-05T03:41:47.157Z,39.13
2018-09-05T03:44:15.997Z,38.20
2018-09-05T03:46:44.836Z,40.63
2018-09-05T03:49:13.711Z,38.20
2018-09-05T03:51:42.553Z,40.47
2018-09-05T03:54:11.406Z,38.23
2018-09-05T03:56:40.251Z,37.60
2018-09-05T03:59:09.070Z,38.07
2018-09-05T04:01:37.892Z,37.73
2018-09-05T04:04:06.700Z,37.40
2018-09-05T04:06:35.517Z,37.73
2018-09-05T04:09:06.117Z,37.17
2018-09-05T04:11:34.973Z,35.40
2018-09-05T04:14:03.877Z,36.40
2018-09-05T04:16:32.721Z,36.50
2018-09-05T04:19:01.646Z,36.00
2018-09-05T04:21:30.477Z,37.60
2018-09-05T04:23:59.279Z,38.07
2018-09-05T04:26:28.183Z,39.73
2018-09-05T04:28:57.077Z,38.20
2018-09-05T04:31:26.000Z,40.57
2018-09-05T04:33:54.831Z,42.80
2018-09-05T04:36:23.755Z,38.67
2018-09-05T04:38:52.636Z,40.63
2018-09-05T04:41:21.462Z,42.17
2018-09-05T04:43:50.288Z,46.57
2018-09-05T04:46:19.117Z,41.47
2018-09-05T04:48:47.945Z,41.43
2018-09-05T04:51:16.787Z,43.23
2018-09-05T04:53:45.538Z,43.80
2018-09-05T04:56:14.403Z,43.73
2018-09-05T04:58:43.199Z,46.40
2018-09-05T05:01:12.097Z,41.17
2018-09-05T05:03:40.916Z,41.87
2018-09-05T05:06:09.897Z,38.53
2018-09-05T05:08:38.752Z,37.20
2018-09-05T05:11:07.595Z,39.67
2018-09-05T05:13:36.439Z,39.53
2018-09-05T05:16:05.594Z,39.27
2018-09-05T05:18:34.435Z,37.73
2018-09-05T05:21:03.298Z,38.47
2018-09-05T05:23:32.141Z,38.53
2018-09-05T05:26:01.040Z,37.67
2018-09-05T05:28:29.894Z,39.13
2018-09-05T05:30:58.838Z,38.53
2018-09-05T05:33:27.681Z,39.30
2018-09-05T05:35:56.520Z,38.40
2018-09-05T05:38:25.456Z,43.47
2018-09-05T05:40:54.411Z,42.17
2018-09-05T05:43:23.213Z,44.60
2018-09-05T05:45:52.147Z,41.37
2018-09-05T05:48:21.057Z,41.57
2018-09-05T05:50:50.705Z,41.97
2018-09-05T05:53:19.586Z,42.37
2018-09-05T05:55:48.491Z,46.93
2018-09-05T05:58:17.374Z,39.93
2018-09-05T06:00:46.302Z,40.13
2018-09-05T06:03:15.106Z,44.43
2018-09-05T06:05:44.058Z,40.63
2018-09-05T06:08:12.935Z,42.00
2018-09-05T06:10:41.932Z,42.07
2018-09-05T06:13:10.804Z,40.67
2018-09-05T06:15:40.086Z,38.30
2018-09-05T06:18:08.873Z,39.73
2018-09-05T06:20:37.917Z,36.43
2018-09-05T06:23:06.800Z,37.43
2018-09-05T06:25:35.746Z,37.33
2018-09-05T06:28:04.722Z,37.83
2018-09-05T06:30:33.727Z,37.27
2018-09-05T06:33:02.564Z,36.00
2018-09-05T06:35:31.472Z,39.40
2018-09-05T06:38:00.449Z,40.43
2018-09-05T06:40:29.355Z,36.00
2018-09-05T06:42:58.338Z,36.97
2018-09-05T06:45:27.245Z,38.63
2018-09-05T06:47:56.099Z,38.53
2018-09-05T06:50:24.940Z,42.13
2018-09-05T06:52:53.886Z,41.07
2018-09-05T06:55:22.928Z,39.53
2018-09-05T06:57:51.981Z,40.13
2018-09-05T07:00:20.995Z,41.30
2018-09-05T07:02:49.935Z,40.87
2018-09-05T07:05:19.543Z,41.30
2018-09-05T07:07:48.534Z,42.17
2018-09-05T07:10:17.413Z,41.63
2018-09-05T07:12:46.331Z,40.40
2018-09-05T07:15:15.214Z,42.43
2018-09-05T07:17:44.175Z,44.23
2018-09-05T07:20:13.010Z,41.13
2018-09-05T07:22:41.894Z,45.77
2018-09-05T07:25:10.810Z,44.77
2018-09-05T07:27:39.680Z,42.33
2018-09-05T07:30:08.664Z,43.40
2018-09-05T07:32:37.620Z,44.27
2018-09-05T07:35:06.456Z,43.67
2018-09-05T07:37:35.425Z,45.27
2018-09-05T07:40:04.401Z,44.60
2018-09-05T07:42:36.286Z,46.00
2018-09-05T07:48:12.074Z,42.53
2018-09-05T07:50:45.009Z,40.67
2018-09-05T07:53:16.547Z,41.20
2018-09-05T07:55:47.959Z,44.40
2018-09-05T08:01:15.550Z,42.53
2018-09-05T08:03:50.075Z,45.97
2018-09-05T08:06:22.045Z,40.87
2018-09-05T08:08:52.918Z,40.27
2018-09-05T08:11:24.626Z,41.23
2018-09-05T08:13:55.572Z,39.50
2018-09-05T08:16:27.307Z,37.50
2018-09-05T08:19:00.309Z,34.70
2018-09-05T08:21:31.810Z,34.27
2018-09-05T08:24:04.273Z,35.07
2018-09-05T08:27:08.540Z,35.37
2018-09-05T08:29:59.777Z,34.03
2018-09-05T08:32:30.943Z,36.03
2018-09-05T08:35:02.418Z,33.63
2018-09-05T08:40:45.658Z,25.03
2018-09-05T08:43:17.489Z,32.43
2018-09-05T08:45:53.813Z,32.43
2018-09-05T08:49:06.738Z,31.10
2018-09-05T08:51:35.802Z,21.87
2018-09-05T08:54:04.865Z,18.83
2018-09-05T08:56:33.989Z,24.70
2018-09-05T08:59:03.019Z,17.63
2018-09-05T09:01:32.197Z,20.13
2018-09-05T09:04:01.399Z,17.67
2018-09-05T09:06:30.507Z,16.93
2018-09-05T09:08:59.574Z,19.50
2018-09-05T09:11:29.033Z,21.77
2018-09-05T09:13:58.099Z,20.03
2018-09-05T09:16:27.018Z,19.37
2018-09-05T09:18:55.984Z,21.67
2018-09-05T09:21:24.894Z,19.97
2018-09-05T09:23:53.966Z,21.27
2018-09-05T09:26:23.228Z,21.13
2018-09-05T09:28:53.048Z,18.45
2018-09-05T09:31:22.566Z,18.53
2018-09-05T09:33:52.049Z,18.37
2018-09-05T09:36:21.359Z,21.33
2018-09-05T09:38:50.383Z,16.43
2018-09-05T09:41:19.709Z,16.20
2018-09-05T09:43:48.802Z,19.17
2018-09-05T09:46:17.834Z,17.60
2018-09-05T09:48:46.934Z,18.20
2018-09-05T09:51:15.932Z,15.75
2018-09-05T09:53:46.024Z,17.32
2018-09-05T09:56:15.288Z,20.62
2018-09-05T09:58:44.301Z,16.20
2018-09-05T10:01:18.796Z,20.62
2018-09-05T10:03:52.909Z,14.87
2018-09-05T10:06:26.061Z,16.00
2018-09-05T10:09:00.676Z,15.78
2018-09-05T10:11:34.700Z,15.70
2018-09-05T10:14:09.195Z,17.92
2018-09-05T10:16:41.085Z,15.85
2018-09-05T10:19:11.687Z,18.12
2018-09-05T10:21:40.700Z,15.63
2018-09-05T10:24:09.755Z,19.65
2018-09-05T10:26:38.671Z,18.23
2018-09-05T10:29:07.855Z,20.17
2018-09-05T10:31:36.923Z,15.55
2018-09-05T10:34:06.807Z,13.43
2018-09-05T10:36:35.770Z,16.05
2018-09-05T10:39:06.930Z,16.12
2018-09-05T10:41:36.086Z,17.48
2018-09-05T10:44:04.992Z,14.13
2018-09-05T10:46:34.080Z,16.12
2018-09-05T10:49:03.015Z,15.68
2018-09-05T10:51:37.257Z,15.58
2018-09-05T10:54:06.751Z,17.67
2018-09-05T10:56:35.992Z,15.23
2018-09-05T10:59:05.173Z,15.78
2018-09-05T11:01:34.645Z,17.85
2018-09-05T11:04:04.039Z,19.50
2018-09-05T11:06:33.136Z,14.43
2018-09-05T11:09:02.344Z,13.13
2018-09-05T11:11:31.760Z,14.43
2018-09-05T11:14:00.788Z,14.95
2018-09-05T11:16:30.550Z,13.65
2018-09-05T11:19:05.869Z,15.75
2018-09-05T11:21:34.955Z,16.00
2018-09-05T11:24:03.959Z,14.40
2018-09-05T11:26:33.090Z,16.97
2018-09-05T11:29:02.249Z,14.63
2018-09-05T11:31:31.633Z,14.50
2018-09-05T11:34:00.595Z,15.80
2018-09-05T11:36:30.137Z,15.08
2018-09-05T11:38:59.173Z,14.33
2018-09-05T11:41:28.267Z,14.40
2018-09-05T11:43:57.329Z,13.72
2018-09-05T11:46:26.542Z,15.15
2018-09-05T11:48:55.520Z,15.68
2018-09-05T11:51:24.778Z,15.45
2018-09-05T11:53:53.958Z,14.25
2018-09-05T11:56:23.125Z,14.90
2018-09-05T11:58:52.289Z,15.83
2018-09-05T12:01:21.482Z,15.55
2018-09-05T12:03:50.859Z,15.08
2018-09-05T12:06:20.119Z,14.68
2018-09-05T12:08:49.092Z,16.45
2018-09-05T12:11:18.215Z,16.90
2018-09-05T12:13:47.066Z,15.20
2018-09-05T12:16:16.535Z,14.87
2018-09-05T12:18:45.747Z,16.12
2018-09-05T12:21:14.892Z,16.55
2018-09-05T12:23:43.971Z,16.05
2018-09-05T12:26:13.420Z,15.40
2018-09-05T12:28:43.057Z,15.03
2018-09-05T12:31:12.349Z,15.98
2018-09-05T12:33:41.371Z,16.00
2018-09-05T12:36:10.795Z,15.90
2018-09-05T12:38:39.790Z,16.73
2018-09-05T12:41:08.793Z,15.63
2018-09-05T12:43:37.786Z,15.65
2018-09-05T12:46:07.002Z,16.07
2018-09-05T12:48:36.318Z,15.32
2018-09-05T12:51:05.409Z,15.60
2018-09-05T12:53:34.446Z,15.75
2018-09-05T12:56:03.410Z,16.20
2018-09-05T12:58:32.649Z,16.00
2018-09-05T13:01:01.815Z,15.63
2018-09-05T13:03:31.017Z,15.72
2018-09-05T13:05:59.894Z,16.48
2018-09-05T13:08:28.961Z,15.40
2018-09-05T13:10:57.989Z,14.30
2018-09-05T13:13:27.003Z,15.40
2018-09-05T13:15:56.078Z,15.40
2018-09-05T13:18:25.248Z,15.75
2018-09-05T13:20:54.295Z,15.58
2018-09-05T13:23:23.467Z,15.48
2018-09-05T13:25:52.520Z,14.83
2018-09-05T13:28:21.710Z,15.90
2018-09-05T13:30:50.616Z,15.38
2018-09-05T13:33:20.068Z,15.70
2018-09-05T13:35:49.217Z,16.05
2018-09-05T13:38:18.406Z,15.08
2018-09-05T13:40:47.325Z,16.17
2018-09-05T13:43:21.196Z,15.13
2018-09-05T13:45:54.010Z,15.88
2018-09-05T13:48:23.123Z,15.90
2018-09-05T13:50:52.097Z,15.63
2018-09-05T13:53:21.196Z,16.67
2018-09-05T13:55:50.394Z,16.37
2018-09-05T13:58:19.607Z,15.95
2018-09-05T14:00:48.623Z,16.48
2018-09-05T14:03:20.520Z,16.57
2018-09-05T14:05:49.509Z,16.73
2018-09-05T14:08:20.788Z,16.90
2018-09-05T14:10:52.404Z,14.90
2018-09-05T14:13:21.378Z,15.72
2018-09-05T14:15:56.995Z,17.17
2018-09-05T14:18:27.965Z,16.75
2018-09-05T14:20:59.064Z,16.87
2018-09-05T14:23:28.157Z,17.00
2018-09-05T14:25:57.123Z,16.23
2018-09-05T14:28:26.210Z,16.57
2018-09-05T14:30:55.528Z,16.73
2018-09-05T14:33:24.480Z,17.57
2018-09-05T14:35:53.813Z,15.78
2018-09-05T14:38:22.781Z,16.90
2018-09-05T14:40:51.892Z,17.27
2018-09-05T14:43:20.862Z,16.25
2018-09-05T14:45:49.897Z,17.87
2018-09-05T14:48:24.130Z,16.32
2018-09-05T14:50:54.489Z,15.93
2018-09-05T14:53:25.487Z,16.32
2018-09-05T14:55:58.266Z,16.00
2018-09-05T14:58:29.596Z,16.60
2018-09-05T15:01:05.380Z,16.27
2018-09-05T15:06:13.029Z,16.17
2018-09-05T15:08:42.426Z,15.45
2018-09-05T15:11:11.419Z,14.93
2018-09-05T15:13:42.574Z,14.78
2018-09-05T15:16:11.708Z,14.85
2018-09-05T15:18:40.691Z,14.98
2018-09-05T15:21:09.769Z,14.68
2018-09-05T15:23:38.660Z,14.70
2018-09-05T15:26:07.979Z,14.35
2018-09-05T15:28:37.321Z,15.25
2018-09-05T15:31:06.566Z,14.43
2018-09-05T15:33:35.500Z,14.85
2018-09-05T15:36:04.825Z,15.35
2018-09-05T15:38:34.047Z,15.68
2018-09-05T15:41:03.152Z,15.60
2018-09-05T15:43:32.315Z,15.13
2018-09-05T15:46:01.390Z,13.20
2018-09-05T15:48:30.228Z,14.28
2018-09-05T15:50:59.388Z,13.78
2018-09-05T15:53:28.499Z,13.88
2018-09-05T15:55:57.412Z,13.88
2018-09-05T15:58:26.462Z,12.50
2018-09-05T16:00:55.348Z,13.40
2018-09-05T16:03:25.132Z,13.98
2018-09-05T16:05:54.092Z,13.90
2018-09-05T16:08:23.032Z,14.28
2018-09-05T16:10:52.021Z,13.03
2018-09-05T16:13:20.971Z,14.85
2018-09-05T16:15:49.842Z,14.43
2018-09-05T16:18:18.833Z,14.65
2018-09-05T16:20:47.958Z,13.65
2018-09-05T16:23:17.014Z,14.35
2018-09-05T16:25:45.853Z,15.28
2018-09-05T16:28:14.771Z,17.62
2018-09-05T16:30:43.960Z,16.00
2018-09-05T16:33:13.156Z,16.45
2018-09-05T16:35:42.063Z,16.57
2018-09-05T16:38:10.976Z,16.12
2018-09-05T16:40:39.848Z,16.70
2018-09-05T16:43:09.293Z,16.15
2018-09-05T16:45:38.318Z,16.00
2018-09-05T16:48:07.610Z,16.45
2018-09-05T16:50:36.493Z,16.10
2018-09-05T16:53:05.693Z,17.42
2018-09-05T16:55:34.641Z,15.88
2018-09-05T16:58:04.419Z,15.48
2018-09-05T17:00:33.388Z,17.27
2018-09-05T17:03:02.312Z,17.20
2018-09-05T17:05:31.199Z,16.30
2018-09-05T17:08:00.100Z,17.00
2018-09-05T17:10:29.268Z,16.60
2018-09-05T17:12:58.441Z,16.45
2018-09-05T17:15:27.309Z,14.40
2018-09-05T17:17:56.171Z,14.75
2018-09-05T17:20:24.986Z,15.08
2018-09-05T17:22:54.069Z,14.00
2018-09-05T17:25:22.991Z,14.00
2018-09-05T17:27:52.083Z,14.03
2018-09-05T17:30:23.001Z,13.93
2018-09-05T17:32:52.172Z,14.93
2018-09-05T17:35:21.259Z,15.63
2018-09-05T17:37:50.216Z,15.63
2018-09-05T17:40:19.510Z,19.07
2018-09-05T17:42:48.370Z,18.83
2018-09-05T17:45:17.249Z,16.80
2018-09-05T17:47:46.055Z,16.97
2018-09-05T17:50:15.141Z,17.63
2018-09-05T17:52:44.162Z,16.50
2018-09-05T17:55:13.088Z,16.00
2018-09-05T17:57:41.945Z,15.43
2018-09-05T18:00:10.914Z,13.97
2018-09-05T18:02:39.847Z,14.53
2018-09-05T18:05:08.783Z,14.07
2018-09-05T18:07:38.744Z,16.03
2018-09-05T18:10:07.589Z,13.83
2018-09-05T18:12:36.572Z,14.73
2018-09-05T18:15:05.895Z,13.50
2018-09-05T18:17:34.789Z,13.33
2018-09-05T18:20:03.660Z,13.93
2018-09-05T18:22:32.414Z,13.43
2018-09-05T18:25:01.312Z,16.67
2018-09-05T18:27:30.263Z,13.87
2018-09-05T18:29:59.120Z,14.63
2018-09-05T18:32:28.109Z,16.47
2018-09-05T18:34:56.995Z,16.30
2018-09-05T18:37:25.897Z,17.57
2018-09-05T18:39:54.998Z,15.80
2018-09-05T18:42:24.052Z,15.00
2018-09-05T18:44:53.173Z,14.63
2018-09-05T18:47:22.385Z,16.83
2018-09-05T18:49:52.365Z,17.53
2018-09-05T18:52:21.244Z,15.97
2018-09-05T18:54:50.437Z,17.10
2018-09-05T18:57:19.441Z,17.40
2018-09-05T18:59:48.319Z,15.80
2018-09-05T19:02:17.241Z,15.27
2018-09-05T19:04:46.180Z,17.30
2018-09-05T19:07:15.044Z,15.57
2018-09-05T19:09:44.083Z,17.67
2018-09-05T19:12:12.939Z,16.00
2018-09-05T19:14:42.071Z,16.17
2018-09-05T19:17:11.072Z,19.40
2018-09-05T19:19:39.971Z,16.00
2018-09-05T19:22:08.906Z,16.80
2018-09-05T19:24:37.758Z,15.93
2018-09-05T19:27:06.673Z,18.53
2018-09-05T19:29:35.512Z,17.37
2018-09-05T19:32:04.534Z,15.87
2018-09-05T19:34:33.396Z,16.00
2018-09-05T19:37:02.547Z,16.27
2018-09-05T19:39:31.578Z,16.17
2018-09-05T19:42:00.741Z,16.40
2018-09-05T19:44:29.740Z,19.57
2018-09-05T19:46:58.595Z,15.43
2018-09-05T19:49:27.415Z,15.37
2018-09-05T19:51:56.289Z,14.10
2018-09-05T19:54:25.547Z,14.30
2018-09-05T19:56:54.681Z,14.90
2018-09-05T19:59:23.611Z,17.00
2018-09-05T20:01:52.409Z,16.67
2018-09-05T20:04:21.236Z,14.83
2018-09-05T20:06:50.180Z,15.90
2018-09-05T20:09:19.077Z,14.40
2018-09-05T20:11:47.986Z,15.23
2018-09-05T20:14:16.814Z,15.57
2018-09-05T20:16:46.576Z,16.13
2018-09-05T20:19:15.671Z,15.70
2018-09-05T20:21:44.538Z,17.27
2018-09-05T20:24:13.325Z,15.77
2018-09-05T20:26:42.200Z,16.97
2018-09-05T20:29:11.198Z,17.33
2018-09-05T20:31:40.532Z,18.57
2018-09-05T20:34:09.388Z,18.43
2018-09-05T20:36:38.190Z,19.30
2018-09-05T20:39:09.255Z,19.60
2018-09-05T20:41:38.149Z,18.30
2018-09-05T20:44:07.018Z,19.33
2018-09-05T20:46:35.901Z,18.83
2018-09-05T20:49:04.716Z,21.60
2018-09-05T20:51:33.658Z,19.73
2018-09-05T20:54:02.492Z,18.73
2018-09-05T20:56:31.349Z,19.30
2018-09-05T20:59:00.321Z,18.83
2018-09-05T21:01:29.298Z,20.43
2018-09-05T21:03:58.358Z,20.37
2018-09-05T21:06:27.304Z,18.97
2018-09-05T21:08:56.125Z,18.40
2018-09-05T21:11:25.033Z,18.13
2018-09-05T21:13:53.879Z,19.40
2018-09-05T21:16:22.896Z,19.80
2018-09-05T21:18:51.733Z,19.03
2018-09-05T21:21:20.633Z,18.20
2018-09-05T21:23:49.481Z,19.47
2018-09-05T21:26:18.335Z,21.13
2018-09-05T21:28:47.192Z,19.10
2018-09-05T21:31:16.071Z,20.33
2018-09-05T21:33:44.936Z,19.27
2018-09-05T21:36:13.825Z,20.30
2018-09-05T21:38:42.685Z,20.63
2018-09-05T21:41:11.682Z,19.97
2018-09-05T21:43:40.551Z,20.60
2018-09-05T21:46:09.460Z,21.00
2018-09-05T21:48:38.448Z,21.37
2018-09-05T21:51:07.392Z,22.97
2018-09-05T21:53:36.293Z,22.87
2018-09-05T21:56:05.361Z,22.80
2018-09-05T21:58:34.237Z,22.53
2018-09-05T22:01:03.108Z,22.77
2018-09-05T22:03:31.973Z,23.83
2018-09-05T22:06:01.036Z,21.77
2018-09-05T22:08:30.010Z,22.17
2018-09-05T22:11:03.173Z,21.53
2018-09-05T22:13:32.311Z,22.47
2018-09-05T22:16:01.281Z,21.97
2018-09-05T22:18:30.178Z,21.53
2018-09-05T22:20:59.037Z,21.70
2018-09-05T22:23:27.918Z,24.20
2018-09-05T22:25:56.738Z,22.47
2018-09-05T22:28:25.578Z,22.53
2018-09-05T22:30:54.440Z,23.63
2018-09-05T22:33:23.311Z,22.07
2018-09-05T22:35:52.109Z,23.43
2018-09-05T22:38:20.968Z,23.83
2018-09-05T22:40:52.860Z,27.23
2018-09-05T22:43:33.477Z,25.83
2018-09-05T22:46:13.488Z,25.30
2018-09-05T22:48:53.413Z,25.27
2018-09-05T22:54:12.096Z,25.80
2018-09-05T22:56:58.229Z,25.13
2018-09-05T23:02:10.267Z,28.30
2018-09-05T23:04:52.214Z,25.13
2018-09-05T23:08:37.155Z,25.57
2018-09-05T23:11:17.271Z,24.07
2018-09-05T23:15:05.510Z,23.30
2018-09-05T23:18:45.558Z,21.57
2018-09-05T23:21:18.827Z,21.40
2018-09-05T23:23:57.691Z,22.40
2018-09-05T23:26:26.953Z,21.63
2018-09-05T23:28:55.803Z,21.07
2018-09-05T23:31:24.972Z,21.03
2018-09-05T23:33:53.887Z,25.27
2018-09-05T23:36:23.010Z,22.93
2018-09-05T23:38:51.857Z,23.10
2018-09-05T23:41:20.687Z,21.70
2018-09-05T23:43:49.568Z,23.07
2018-09-05T23:46:18.407Z,22.97
2018-09-05T23:48:47.291Z,21.23
2018-09-05T23:51:16.108Z,22.47
2018-09-05T23:53:44.987Z,21.97
2018-09-05T23:56:13.820Z,21.03
2018-09-05T23:58:42.662Z,21.63
